sensor_id;sensor_type;location;lat;lon;timestamp;temperature;humidity
55064;DHT22;40963;52.168;21.296;2022-10-16T00:01:12;14.50;99.90
55064;DHT22;40963;52.168;21.296;2022-10-16T00:03:39;14.50;99.90
55064;DHT22;40963;52.168;21.296;2022-10-16T00:06:05;14.50;99.90
55064;DHT22;40963;52.168;21.296;2022-10-16T00:08:31;14.50;99.90
55064;DHT22;40963;52.168;21.296;2022-10-16T00:11:02;14.50;99.90
55064;DHT22;40963;52.168;21.296;2022-10-16T00:13:29;14.50;99.90
55064;DHT22;40963;52.168;21.296;2022-10-16T00:15:56;14.50;99.90
55064;DHT22;40963;52.168;21.296;2022-10-16T00:18:22;14.40;99.90
55064;DHT22;40963;52.168;21.296;2022-10-16T00:20:48;14.50;99.90
55064;DHT22;40963;52.168;21.296;2022-10-16T00:23:14;14.40;99.90
55064;DHT22;40963;52.168;21.296;2022-10-16T00:25:39;14.40;99.90
55064;DHT22;40963;52.168;21.296;2022-10-16T00:28:05;14.40;99.90
55064;DHT22;40963;52.168;21.296;2022-10-16T00:30:31;14.40;99.90
55064;DHT22;40963;52.168;21.296;2022-10-16T00:32:56;14.40;99.90
55064;DHT22;40963;52.168;21.296;2022-10-16T00:35:22;14.40;99.90
55064;DHT22;40963;52.168;21.296;2022-10-16T00:37:48;14.40;99.90
55064;DHT22;40963;52.168;21.296;2022-10-16T00:40:14;14.40;99.90
55064;DHT22;40963;52.168;21.296;2022-10-16T00:42:39;14.40;99.90
55064;DHT22;40963;52.168;21.296;2022-10-16T00:45:08;14.40;99.90
55064;DHT22;40963;52.168;21.296;2022-10-16T00:47:37;14.40;99.90
55064;DHT22;40963;52.168;21.296;2022-10-16T00:50:13;14.40;99.90
55064;DHT22;40963;52.168;21.296;2022-10-16T00:52:44;14.40;99.90
55064;DHT22;40963;52.168;21.296;2022-10-16T00:55:11;14.30;99.90
55064;DHT22;40963;52.168;21.296;2022-10-16T00:57:37;14.30;99.90
55064;DHT22;40963;52.168;21.296;2022-10-16T01:00:07;14.30;99.90
55064;DHT22;40963;52.168;21.296;2022-10-16T01:02:34;14.30;99.90
55064;DHT22;40963;52.168;21.296;2022-10-16T01:04:59;14.30;99.90
55064;DHT22;40963;52.168;21.296;2022-10-16T01:10:34;14.30;99.90
55064;DHT22;40963;52.168;21.296;2022-10-16T01:13:21;14.30;99.90
55064;DHT22;40963;52.168;21.296;2022-10-16T01:27:01;14.30;99.90
55064;DHT22;40963;52.168;21.296;2022-10-16T01:29:33;14.30;99.90
55064;DHT22;40963;52.168;21.296;2022-10-16T01:32:50;14.30;99.90
55064;DHT22;40963;52.168;21.296;2022-10-16T01:34:59;14.30;99.90
55064;DHT22;40963;52.168;21.296;2022-10-16T01:37:37;14.30;99.90
55064;DHT22;40963;52.168;21.296;2022-10-16T01:40:07;14.30;99.90
55064;DHT22;40963;52.168;21.296;2022-10-16T01:42:38;14.30;99.90
55064;DHT22;40963;52.168;21.296;2022-10-16T01:45:05;14.30;99.90
55064;DHT22;40963;52.168;21.296;2022-10-16T01:47:33;14.20;99.90
55064;DHT22;40963;52.168;21.296;2022-10-16T01:50:02;14.20;99.90
55064;DHT22;40963;52.168;21.296;2022-10-16T01:52:30;14.20;99.90
55064;DHT22;40963;52.168;21.296;2022-10-16T01:54:58;14.20;99.90
55064;DHT22;40963;52.168;21.296;2022-10-16T01:57:26;14.10;99.90
55064;DHT22;40963;52.168;21.296;2022-10-16T01:59:55;14.10;99.90
55064;DHT22;40963;52.168;21.296;2022-10-16T02:02:22;14.00;99.90
55064;DHT22;40963;52.168;21.296;2022-10-16T02:04:57;14.00;99.90
55064;DHT22;40963;52.168;21.296;2022-10-16T02:07:23;14.00;99.90
55064;DHT22;40963;52.168;21.296;2022-10-16T02:09:49;13.90;99.90
55064;DHT22;40963;52.168;21.296;2022-10-16T02:14:49;13.90;99.90
55064;DHT22;40963;52.168;21.296;2022-10-16T02:17:16;13.90;99.90
55064;DHT22;40963;52.168;21.296;2022-10-16T02:19:43;13.90;99.90
55064;DHT22;40963;52.168;21.296;2022-10-16T02:22:16;13.80;99.90
55064;DHT22;40963;52.168;21.296;2022-10-16T02:24:54;13.80;99.90
55064;DHT22;40963;52.168;21.296;2022-10-16T02:27:41;13.80;99.90
55064;DHT22;40963;52.168;21.296;2022-10-16T02:30:27;13.80;99.90
55064;DHT22;40963;52.168;21.296;2022-10-16T02:32:55;13.80;99.90
55064;DHT22;40963;52.168;21.296;2022-10-16T02:35:23;13.80;99.90
55064;DHT22;40963;52.168;21.296;2022-10-16T02:37:50;13.70;99.90
55064;DHT22;40963;52.168;21.296;2022-10-16T02:40:17;13.70;99.90
55064;DHT22;40963;52.168;21.296;2022-10-16T02:42:43;13.70;99.90
55064;DHT22;40963;52.168;21.296;2022-10-16T02:45:10;13.70;99.90
55064;DHT22;40963;52.168;21.296;2022-10-16T02:47:36;13.70;99.90
55064;DHT22;40963;52.168;21.296;2022-10-16T02:50:05;13.70;99.90
55064;DHT22;40963;52.168;21.296;2022-10-16T02:52:30;13.70;99.90
55064;DHT22;40963;52.168;21.296;2022-10-16T02:54:56;13.60;99.90
55064;DHT22;40963;52.168;21.296;2022-10-16T02:57:22;13.60;99.90
55064;DHT22;40963;52.168;21.296;2022-10-16T02:59:48;13.60;99.90
55064;DHT22;40963;52.168;21.296;2022-10-16T03:02:13;13.60;99.90
55064;DHT22;40963;52.168;21.296;2022-10-16T03:04:39;13.60;99.90
55064;DHT22;40963;52.168;21.296;2022-10-16T03:07:05;13.60;99.90
55064;DHT22;40963;52.168;21.296;2022-10-16T03:09:30;13.60;99.90
55064;DHT22;40963;52.168;21.296;2022-10-16T03:11:56;13.60;99.90
55064;DHT22;40963;52.168;21.296;2022-10-16T03:14:21;13.60;99.90
55064;DHT22;40963;52.168;21.296;2022-10-16T03:16:47;13.60;99.90
55064;DHT22;40963;52.168;21.296;2022-10-16T03:19:13;13.60;99.90
55064;DHT22;40963;52.168;21.296;2022-10-16T03:21:39;13.60;99.90
55064;DHT22;40963;52.168;21.296;2022-10-16T03:24:04;13.60;99.90
55064;DHT22;40963;52.168;21.296;2022-10-16T03:26:30;13.60;99.90
55064;DHT22;40963;52.168;21.296;2022-10-16T03:28:56;13.70;99.90
55064;DHT22;40963;52.168;21.296;2022-10-16T03:31:21;13.60;99.90
55064;DHT22;40963;52.168;21.296;2022-10-16T03:33:47;13.60;99.90
55064;DHT22;40963;52.168;21.296;2022-10-16T03:36:13;13.70;99.90
55064;DHT22;40963;52.168;21.296;2022-10-16T03:38:38;13.60;99.90
55064;DHT22;40963;52.168;21.296;2022-10-16T03:41:04;13.70;99.90
55064;DHT22;40963;52.168;21.296;2022-10-16T03:43:30;13.70;99.90
55064;DHT22;40963;52.168;21.296;2022-10-16T03:45:55;13.70;99.90
55064;DHT22;40963;52.168;21.296;2022-10-16T03:48:21;13.70;99.90
55064;DHT22;40963;52.168;21.296;2022-10-16T03:50:47;13.70;99.90
55064;DHT22;40963;52.168;21.296;2022-10-16T03:53:14;13.70;99.90
55064;DHT22;40963;52.168;21.296;2022-10-16T03:55:41;13.70;99.90
55064;DHT22;40963;52.168;21.296;2022-10-16T03:58:07;13.70;99.90
55064;DHT22;40963;52.168;21.296;2022-10-16T04:00:33;13.70;99.90
55064;DHT22;40963;52.168;21.296;2022-10-16T04:03:00;13.70;99.90
55064;DHT22;40963;52.168;21.296;2022-10-16T04:05:25;13.70;99.90
55064;DHT22;40963;52.168;21.296;2022-10-16T04:07:51;13.70;99.90
55064;DHT22;40963;52.168;21.296;2022-10-16T04:10:17;13.70;99.90
55064;DHT22;40963;52.168;21.296;2022-10-16T04:12:42;13.70;99.90
55064;DHT22;40963;52.168;21.296;2022-10-16T04:15:08;13.70;99.90
55064;DHT22;40963;52.168;21.296;2022-10-16T04:17:34;13.70;99.90
55064;DHT22;40963;52.168;21.296;2022-10-16T04:19:59;13.70;99.90
55064;DHT22;40963;52.168;21.296;2022-10-16T04:22:25;13.70;99.90
55064;DHT22;40963;52.168;21.296;2022-10-16T04:24:51;13.70;99.90
55064;DHT22;40963;52.168;21.296;2022-10-16T04:27:16;13.70;99.90
55064;DHT22;40963;52.168;21.296;2022-10-16T04:29:42;13.70;99.90
55064;DHT22;40963;52.168;21.296;2022-10-16T04:32:09;13.70;99.90
55064;DHT22;40963;52.168;21.296;2022-10-16T04:34:34;13.70;99.90
55064;DHT22;40963;52.168;21.296;2022-10-16T04:37:00;13.70;99.90
55064;DHT22;40963;52.168;21.296;2022-10-16T04:39:26;13.70;99.90
55064;DHT22;40963;52.168;21.296;2022-10-16T04:41:51;13.70;99.90
55064;DHT22;40963;52.168;21.296;2022-10-16T04:44:17;13.70;99.90
55064;DHT22;40963;52.168;21.296;2022-10-16T04:46:43;13.70;99.90
55064;DHT22;40963;52.168;21.296;2022-10-16T04:49:09;13.70;99.90
55064;DHT22;40963;52.168;21.296;2022-10-16T04:51:35;13.70;99.90
55064;DHT22;40963;52.168;21.296;2022-10-16T04:54:01;13.70;99.90
55064;DHT22;40963;52.168;21.296;2022-10-16T04:56:27;13.60;99.90
55064;DHT22;40963;52.168;21.296;2022-10-16T04:58:52;13.60;99.90
55064;DHT22;40963;52.168;21.296;2022-10-16T05:01:18;13.60;99.90
55064;DHT22;40963;52.168;21.296;2022-10-16T05:03:44;13.50;99.90
55064;DHT22;40963;52.168;21.296;2022-10-16T05:06:09;13.50;99.90
55064;DHT22;40963;52.168;21.296;2022-10-16T05:08:35;13.50;99.90
55064;DHT22;40963;52.168;21.296;2022-10-16T05:11:00;13.50;99.90
55064;DHT22;40963;52.168;21.296;2022-10-16T05:13:27;13.40;99.90
55064;DHT22;40963;52.168;21.296;2022-10-16T05:15:52;13.40;99.90
55064;DHT22;40963;52.168;21.296;2022-10-16T05:18:18;13.40;99.90
55064;DHT22;40963;52.168;21.296;2022-10-16T05:20:44;13.40;99.90
55064;DHT22;40963;52.168;21.296;2022-10-16T05:23:09;13.40;99.90
55064;DHT22;40963;52.168;21.296;2022-10-16T05:25:36;13.40;99.90
55064;DHT22;40963;52.168;21.296;2022-10-16T05:28:02;13.40;99.90
55064;DHT22;40963;52.168;21.296;2022-10-16T05:30:28;13.40;99.90
55064;DHT22;40963;52.168;21.296;2022-10-16T05:32:53;13.30;99.90
55064;DHT22;40963;52.168;21.296;2022-10-16T05:35:20;13.40;99.90
55064;DHT22;40963;52.168;21.296;2022-10-16T05:37:46;13.40;99.90
55064;DHT22;40963;52.168;21.296;2022-10-16T05:40:12;13.40;99.90
55064;DHT22;40963;52.168;21.296;2022-10-16T05:42:38;13.40;99.90
55064;DHT22;40963;52.168;21.296;2022-10-16T05:45:05;13.40;99.90
55064;DHT22;40963;52.168;21.296;2022-10-16T05:47:31;13.40;99.90
55064;DHT22;40963;52.168;21.296;2022-10-16T05:49:57;13.40;99.90
55064;DHT22;40963;52.168;21.296;2022-10-16T05:52:22;13.40;99.90
55064;DHT22;40963;52.168;21.296;2022-10-16T05:54:48;13.40;99.90
55064;DHT22;40963;52.168;21.296;2022-10-16T05:57:14;13.40;99.90
55064;DHT22;40963;52.168;21.296;2022-10-16T05:59:39;13.50;99.90
55064;DHT22;40963;52.168;21.296;2022-10-16T06:02:05;13.50;99.90
55064;DHT22;40963;52.168;21.296;2022-10-16T06:04:30;13.50;99.90
55064;DHT22;40963;52.168;21.296;2022-10-16T06:06:58;13.50;99.90
55064;DHT22;40963;52.168;21.296;2022-10-16T06:09:26;13.50;99.90
55064;DHT22;40963;52.168;21.296;2022-10-16T06:11:51;13.50;99.90
55064;DHT22;40963;52.168;21.296;2022-10-16T06:14:17;13.50;99.90
55064;DHT22;40963;52.168;21.296;2022-10-16T06:16:42;13.50;99.90
55064;DHT22;40963;52.168;21.296;2022-10-16T06:19:08;13.50;99.90
55064;DHT22;40963;52.168;21.296;2022-10-16T06:21:34;13.50;99.90
55064;DHT22;40963;52.168;21.296;2022-10-16T06:24:00;13.60;99.90
55064;DHT22;40963;52.168;21.296;2022-10-16T06:26:27;13.60;99.90
55064;DHT22;40963;52.168;21.296;2022-10-16T06:28:55;13.60;99.90
55064;DHT22;40963;52.168;21.296;2022-10-16T06:31:21;13.60;99.90
55064;DHT22;40963;52.168;21.296;2022-10-16T06:33:50;13.70;99.90
55064;DHT22;40963;52.168;21.296;2022-10-16T06:36:17;13.70;99.90
55064;DHT22;40963;52.168;21.296;2022-10-16T06:38:43;13.70;99.90
55064;DHT22;40963;52.168;21.296;2022-10-16T06:41:14;13.80;99.90
55064;DHT22;40963;52.168;21.296;2022-10-16T06:43:40;13.80;99.90
55064;DHT22;40963;52.168;21.296;2022-10-16T06:46:07;13.90;99.90
55064;DHT22;40963;52.168;21.296;2022-10-16T06:48:33;13.90;99.90
55064;DHT22;40963;52.168;21.296;2022-10-16T06:51:11;13.90;99.90
55064;DHT22;40963;52.168;21.296;2022-10-16T06:53:40;13.90;99.90
55064;DHT22;40963;52.168;21.296;2022-10-16T06:56:27;14.00;99.90
55064;DHT22;40963;52.168;21.296;2022-10-16T06:58:53;14.00;99.90
55064;DHT22;40963;52.168;21.296;2022-10-16T07:01:21;14.00;99.90
55064;DHT22;40963;52.168;21.296;2022-10-16T07:03:48;14.10;99.90
55064;DHT22;40963;52.168;21.296;2022-10-16T07:06:16;14.20;99.90
55064;DHT22;40963;52.168;21.296;2022-10-16T07:08:44;14.30;99.90
55064;DHT22;40963;52.168;21.296;2022-10-16T07:11:12;14.30;99.90
55064;DHT22;40963;52.168;21.296;2022-10-16T07:13:40;14.40;99.90
55064;DHT22;40963;52.168;21.296;2022-10-16T07:18:35;14.60;99.90
55064;DHT22;40963;52.168;21.296;2022-10-16T07:21:15;14.70;99.90
55064;DHT22;40963;52.168;21.296;2022-10-16T07:23:41;14.70;99.90
55064;DHT22;40963;52.168;21.296;2022-10-16T07:26:09;14.80;99.90
55064;DHT22;40963;52.168;21.296;2022-10-16T07:28:36;14.90;99.90
55064;DHT22;40963;52.168;21.296;2022-10-16T07:31:03;14.90;99.90
55064;DHT22;40963;52.168;21.296;2022-10-16T07:33:30;15.00;99.90
55064;DHT22;40963;52.168;21.296;2022-10-16T07:35:56;14.90;99.90
55064;DHT22;40963;52.168;21.296;2022-10-16T07:38:22;15.00;99.90
55064;DHT22;40963;52.168;21.296;2022-10-16T07:40:48;15.00;99.90
55064;DHT22;40963;52.168;21.296;2022-10-16T07:43:20;15.00;99.90
55064;DHT22;40963;52.168;21.296;2022-10-16T07:45:47;15.00;99.90
55064;DHT22;40963;52.168;21.296;2022-10-16T07:48:14;15.00;99.90
55064;DHT22;40963;52.168;21.296;2022-10-16T07:50:39;15.00;99.90
55064;DHT22;40963;52.168;21.296;2022-10-16T07:53:06;15.00;99.90
55064;DHT22;40963;52.168;21.296;2022-10-16T07:55:32;15.00;99.90
55064;DHT22;40963;52.168;21.296;2022-10-16T07:57:57;15.00;99.90
55064;DHT22;40963;52.168;21.296;2022-10-16T08:00:23;15.00;99.90
55064;DHT22;40963;52.168;21.296;2022-10-16T08:02:48;15.10;99.90
55064;DHT22;40963;52.168;21.296;2022-10-16T08:05:14;15.10;99.90
55064;DHT22;40963;52.168;21.296;2022-10-16T08:07:40;15.20;99.90
55064;DHT22;40963;52.168;21.296;2022-10-16T08:10:06;15.30;99.90
55064;DHT22;40963;52.168;21.296;2022-10-16T08:12:31;15.50;99.90
55064;DHT22;40963;52.168;21.296;2022-10-16T08:14:57;15.60;99.90
55064;DHT22;40963;52.168;21.296;2022-10-16T08:17:23;15.70;99.90
55064;DHT22;40963;52.168;21.296;2022-10-16T08:19:48;15.80;99.90
55064;DHT22;40963;52.168;21.296;2022-10-16T08:22:14;16.00;99.90
55064;DHT22;40963;52.168;21.296;2022-10-16T08:24:40;16.10;99.90
55064;DHT22;40963;52.168;21.296;2022-10-16T08:27:06;16.30;99.90
55064;DHT22;40963;52.168;21.296;2022-10-16T08:29:32;16.50;99.60
55064;DHT22;40963;52.168;21.296;2022-10-16T08:31:58;16.60;99.20
55064;DHT22;40963;52.168;21.296;2022-10-16T08:34:24;16.70;98.70
55064;DHT22;40963;52.168;21.296;2022-10-16T08:36:49;16.80;98.30
55064;DHT22;40963;52.168;21.296;2022-10-16T08:39:16;16.90;98.00
55064;DHT22;40963;52.168;21.296;2022-10-16T08:45:00;17.00;97.70
55064;DHT22;40963;52.168;21.296;2022-10-16T08:47:54;17.20;97.50
55064;DHT22;40963;52.168;21.296;2022-10-16T08:50:27;17.40;97.20
55064;DHT22;40963;52.168;21.296;2022-10-16T08:52:53;17.50;96.80
55064;DHT22;40963;52.168;21.296;2022-10-16T08:57:50;17.60;95.90
55064;DHT22;40963;52.168;21.296;2022-10-16T09:00:16;17.60;95.70
55064;DHT22;40963;52.168;21.296;2022-10-16T09:08:42;17.40;95.60
55064;DHT22;40963;52.168;21.296;2022-10-16T09:11:26;17.40;95.70
55064;DHT22;40963;52.168;21.296;2022-10-16T09:16:52;17.40;95.70
55064;DHT22;40963;52.168;21.296;2022-10-16T09:19:38;17.40;95.80
55064;DHT22;40963;52.168;21.296;2022-10-16T09:22:14;17.30;96.00
55064;DHT22;40963;52.168;21.296;2022-10-16T09:24:40;17.40;95.80
55064;DHT22;40963;52.168;21.296;2022-10-16T09:27:10;17.40;95.90
55064;DHT22;40963;52.168;21.296;2022-10-16T09:29:36;17.40;95.90
55064;DHT22;40963;52.168;21.296;2022-10-16T09:32:19;17.50;95.90
55064;DHT22;40963;52.168;21.296;2022-10-16T09:34:48;17.60;96.00
55064;DHT22;40963;52.168;21.296;2022-10-16T09:37:18;17.70;95.90
55064;DHT22;40963;52.168;21.296;2022-10-16T09:39:49;17.90;96.00
55064;DHT22;40963;52.168;21.296;2022-10-16T09:42:26;18.00;95.60
55064;DHT22;40963;52.168;21.296;2022-10-16T09:44:53;18.20;95.20
55064;DHT22;40963;52.168;21.296;2022-10-16T09:47:26;18.20;95.10
55064;DHT22;40963;52.168;21.296;2022-10-16T09:49:55;18.30;94.60
55064;DHT22;40963;52.168;21.296;2022-10-16T09:52:23;18.40;94.40
55064;DHT22;40963;52.168;21.296;2022-10-16T09:54:55;18.50;94.50
55064;DHT22;40963;52.168;21.296;2022-10-16T09:57:22;18.70;94.30
55064;DHT22;40963;52.168;21.296;2022-10-16T09:59:55;18.80;93.90
55064;DHT22;40963;52.168;21.296;2022-10-16T10:02:36;18.80;93.50
55064;DHT22;40963;52.168;21.296;2022-10-16T10:05:17;18.90;93.50
55064;DHT22;40963;52.168;21.296;2022-10-16T10:07:43;19.00;93.10
55064;DHT22;40963;52.168;21.296;2022-10-16T10:10:20;19.00;92.70
55064;DHT22;40963;52.168;21.296;2022-10-16T10:12:46;19.00;92.50
55064;DHT22;40963;52.168;21.296;2022-10-16T10:15:13;19.00;92.40
55064;DHT22;40963;52.168;21.296;2022-10-16T10:17:50;18.90;92.40
55064;DHT22;40963;52.168;21.296;2022-10-16T10:20:23;19.00;92.50
55064;DHT22;40963;52.168;21.296;2022-10-16T10:22:50;18.90;92.40
55064;DHT22;40963;52.168;21.296;2022-10-16T10:28:38;19.00;92.30
55064;DHT22;40963;52.168;21.296;2022-10-16T10:31:13;19.00;92.30
55064;DHT22;40963;52.168;21.296;2022-10-16T10:36:30;19.20;92.50
55064;DHT22;40963;52.168;21.296;2022-10-16T10:39:01;19.30;92.20
55064;DHT22;40963;52.168;21.296;2022-10-16T10:44:26;19.40;91.70
55064;DHT22;40963;52.168;21.296;2022-10-16T10:49:58;19.40;91.40
55064;DHT22;40963;52.168;21.296;2022-10-16T11:00:57;19.40;91.10
55064;DHT22;40963;52.168;21.296;2022-10-16T11:06:20;19.40;91.30
55064;DHT22;40963;52.168;21.296;2022-10-16T11:08:53;19.40;91.50
55064;DHT22;40963;52.168;21.296;2022-10-16T11:11:45;19.40;91.60
55064;DHT22;40963;52.168;21.296;2022-10-16T11:14:19;19.40;91.70
55064;DHT22;40963;52.168;21.296;2022-10-16T11:17:19;19.40;91.70
55064;DHT22;40963;52.168;21.296;2022-10-16T11:22:34;19.40;91.90
55064;DHT22;40963;52.168;21.296;2022-10-16T11:25:22;19.40;92.20
55064;DHT22;40963;52.168;21.296;2022-10-16T11:27:57;19.50;92.10
55064;DHT22;40963;52.168;21.296;2022-10-16T11:30:26;19.60;91.60
55064;DHT22;40963;52.168;21.296;2022-10-16T11:35:50;19.70;91.30
55064;DHT22;40963;52.168;21.296;2022-10-16T11:41:27;19.70;90.90
55064;DHT22;40963;52.168;21.296;2022-10-16T11:44:18;19.80;90.60
55064;DHT22;40963;52.168;21.296;2022-10-16T11:46:51;19.80;90.40
55064;DHT22;40963;52.168;21.296;2022-10-16T11:49:21;19.80;90.30
55064;DHT22;40963;52.168;21.296;2022-10-16T11:54:54;19.90;90.10
55064;DHT22;40963;52.168;21.296;2022-10-16T11:57:28;19.90;90.10
55064;DHT22;40963;52.168;21.296;2022-10-16T12:05:49;20.00;89.70
55064;DHT22;40963;52.168;21.296;2022-10-16T12:08:17;20.00;89.40
55064;DHT22;40963;52.168;21.296;2022-10-16T12:10:45;20.00;89.30
55064;DHT22;40963;52.168;21.296;2022-10-16T12:13:32;20.00;89.20
55064;DHT22;40963;52.168;21.296;2022-10-16T12:19:10;20.00;89.00
55064;DHT22;40963;52.168;21.296;2022-10-16T12:21:36;20.00;89.00
55064;DHT22;40963;52.168;21.296;2022-10-16T12:24:03;20.00;88.90
55064;DHT22;40963;52.168;21.296;2022-10-16T12:26:38;20.10;88.70
55064;DHT22;40963;52.168;21.296;2022-10-16T12:31:58;20.10;88.60
55064;DHT22;40963;52.168;21.296;2022-10-16T12:34:42;20.10;88.50
55064;DHT22;40963;52.168;21.296;2022-10-16T12:37:24;20.10;88.40
55064;DHT22;40963;52.168;21.296;2022-10-16T12:39:51;20.10;88.30
55064;DHT22;40963;52.168;21.296;2022-10-16T12:42:33;20.10;88.30
55064;DHT22;40963;52.168;21.296;2022-10-16T12:44:59;20.10;88.20
55064;DHT22;40963;52.168;21.296;2022-10-16T12:49:57;20.00;88.30
55064;DHT22;40963;52.168;21.296;2022-10-16T12:52:38;20.00;88.30
55064;DHT22;40963;52.168;21.296;2022-10-16T12:55:09;20.00;88.40
55064;DHT22;40963;52.168;21.296;2022-10-16T13:00:28;20.00;89.10
55064;DHT22;40963;52.168;21.296;2022-10-16T13:13:50;19.90;88.90
55064;DHT22;40963;52.168;21.296;2022-10-16T13:30:17;19.70;90.30
55064;DHT22;40963;52.168;21.296;2022-10-16T13:32:48;19.60;90.40
55064;DHT22;40963;52.168;21.296;2022-10-16T13:35:34;19.60;90.70
55064;DHT22;40963;52.168;21.296;2022-10-16T13:38:12;19.50;90.80
55064;DHT22;40963;52.168;21.296;2022-10-16T13:40:50;19.50;90.80
55064;DHT22;40963;52.168;21.296;2022-10-16T13:43:27;19.50;90.90
55064;DHT22;40963;52.168;21.296;2022-10-16T13:48:39;19.40;91.10
55064;DHT22;40963;52.168;21.296;2022-10-16T13:51:16;19.40;91.20
55064;DHT22;40963;52.168;21.296;2022-10-16T13:53:44;19.40;91.30
55064;DHT22;40963;52.168;21.296;2022-10-16T13:56:15;19.40;91.40
55064;DHT22;40963;52.168;21.296;2022-10-16T13:58:41;19.30;91.50
55064;DHT22;40963;52.168;21.296;2022-10-16T14:01:24;19.40;91.50
55064;DHT22;40963;52.168;21.296;2022-10-16T14:03:51;19.40;91.60
55064;DHT22;40963;52.168;21.296;2022-10-16T14:06:19;19.30;91.60
55064;DHT22;40963;52.168;21.296;2022-10-16T14:09:11;19.30;91.70
55064;DHT22;40963;52.168;21.296;2022-10-16T14:11:46;19.30;91.70
55064;DHT22;40963;52.168;21.296;2022-10-16T14:14:14;19.30;91.80
55064;DHT22;40963;52.168;21.296;2022-10-16T14:16:41;19.30;91.80
55064;DHT22;40963;52.168;21.296;2022-10-16T14:19:23;19.30;92.00
55064;DHT22;40963;52.168;21.296;2022-10-16T14:21:51;19.30;92.10
55064;DHT22;40963;52.168;21.296;2022-10-16T14:24:32;19.30;92.30
55064;DHT22;40963;52.168;21.296;2022-10-16T14:27:00;19.30;92.50
55064;DHT22;40963;52.168;21.296;2022-10-16T14:29:27;19.30;92.60
55064;DHT22;40963;52.168;21.296;2022-10-16T14:32:02;19.30;92.60
55064;DHT22;40963;52.168;21.296;2022-10-16T14:34:34;19.30;92.70
55064;DHT22;40963;52.168;21.296;2022-10-16T14:37:30;19.20;92.80
55064;DHT22;40963;52.168;21.296;2022-10-16T14:39:55;19.20;92.90
55064;DHT22;40963;52.168;21.296;2022-10-16T14:42:23;19.20;93.00
55064;DHT22;40963;52.168;21.296;2022-10-16T14:44:51;19.20;93.10
55064;DHT22;40963;52.168;21.296;2022-10-16T14:47:22;19.20;93.20
55064;DHT22;40963;52.168;21.296;2022-10-16T14:49:52;19.20;93.40
55064;DHT22;40963;52.168;21.296;2022-10-16T14:52:20;19.10;93.50
55064;DHT22;40963;52.168;21.296;2022-10-16T14:54:49;19.10;93.60
55064;DHT22;40963;52.168;21.296;2022-10-16T14:57:23;19.10;93.70
55064;DHT22;40963;52.168;21.296;2022-10-16T14:59:49;19.10;93.90
55064;DHT22;40963;52.168;21.296;2022-10-16T15:02:29;19.10;94.00
55064;DHT22;40963;52.168;21.296;2022-10-16T15:04:56;19.00;94.10
55064;DHT22;40963;52.168;21.296;2022-10-16T15:07:22;19.10;94.20
55064;DHT22;40963;52.168;21.296;2022-10-16T15:09:47;19.00;94.60
55064;DHT22;40963;52.168;21.296;2022-10-16T15:12:13;19.00;94.50
55064;DHT22;40963;52.168;21.296;2022-10-16T15:14:39;19.00;94.60
55064;DHT22;40963;52.168;21.296;2022-10-16T15:17:04;18.90;94.60
55064;DHT22;40963;52.168;21.296;2022-10-16T15:19:30;19.00;94.80
55064;DHT22;40963;52.168;21.296;2022-10-16T15:21:56;18.90;94.90
55064;DHT22;40963;52.168;21.296;2022-10-16T15:24:21;18.90;95.00
55064;DHT22;40963;52.168;21.296;2022-10-16T15:26:47;18.90;95.10
55064;DHT22;40963;52.168;21.296;2022-10-16T15:29:14;18.90;95.20
55064;DHT22;40963;52.168;21.296;2022-10-16T15:31:40;18.80;95.30
55064;DHT22;40963;52.168;21.296;2022-10-16T15:34:08;18.80;95.40
55064;DHT22;40963;52.168;21.296;2022-10-16T15:36:36;18.80;95.50
55064;DHT22;40963;52.168;21.296;2022-10-16T15:39:03;18.70;95.60
55064;DHT22;40963;52.168;21.296;2022-10-16T15:41:29;18.70;95.70
55064;DHT22;40963;52.168;21.296;2022-10-16T15:43:55;18.70;95.80
55064;DHT22;40963;52.168;21.296;2022-10-16T15:46:22;18.60;95.90
55064;DHT22;40963;52.168;21.296;2022-10-16T15:48:49;18.60;96.10
55064;DHT22;40963;52.168;21.296;2022-10-16T15:51:16;18.60;96.30
55064;DHT22;40963;52.168;21.296;2022-10-16T15:53:42;18.50;96.40
55064;DHT22;40963;52.168;21.296;2022-10-16T15:56:09;18.50;96.60
55064;DHT22;40963;52.168;21.296;2022-10-16T15:58:35;18.50;96.70
55064;DHT22;40963;52.168;21.296;2022-10-16T16:01:02;18.50;96.80
55064;DHT22;40963;52.168;21.296;2022-10-16T16:03:29;18.50;96.90
55064;DHT22;40963;52.168;21.296;2022-10-16T16:05:55;18.40;97.00
55064;DHT22;40963;52.168;21.296;2022-10-16T16:08:21;18.40;97.20
55064;DHT22;40963;52.168;21.296;2022-10-16T16:11:06;18.30;97.30
55064;DHT22;40963;52.168;21.296;2022-10-16T16:13:32;18.40;97.50
55064;DHT22;40963;52.168;21.296;2022-10-16T16:15:57;18.30;97.50
55064;DHT22;40963;52.168;21.296;2022-10-16T16:18:23;18.30;97.70
55064;DHT22;40963;52.168;21.296;2022-10-16T16:20:50;18.30;97.80
55064;DHT22;40963;52.168;21.296;2022-10-16T16:23:15;18.20;97.90
55064;DHT22;40963;52.168;21.296;2022-10-16T16:25:41;18.20;98.00
55064;DHT22;40963;52.168;21.296;2022-10-16T16:28:08;18.20;98.10
55064;DHT22;40963;52.168;21.296;2022-10-16T16:30:36;18.20;98.30
55064;DHT22;40963;52.168;21.296;2022-10-16T16:33:02;18.10;98.30
55064;DHT22;40963;52.168;21.296;2022-10-16T16:35:28;18.10;98.40
55064;DHT22;40963;52.168;21.296;2022-10-16T16:37:54;18.10;98.50
55064;DHT22;40963;52.168;21.296;2022-10-16T16:40:19;18.10;98.60
55064;DHT22;40963;52.168;21.296;2022-10-16T16:42:48;18.10;98.70
55064;DHT22;40963;52.168;21.296;2022-10-16T16:45:13;18.10;98.90
55064;DHT22;40963;52.168;21.296;2022-10-16T16:47:39;18.10;98.90
55064;DHT22;40963;52.168;21.296;2022-10-16T16:50:05;18.00;99.00
55064;DHT22;40963;52.168;21.296;2022-10-16T16:52:32;18.00;99.10
55064;DHT22;40963;52.168;21.296;2022-10-16T16:54:58;18.00;99.20
55064;DHT22;40963;52.168;21.296;2022-10-16T16:57:24;18.00;99.20
55064;DHT22;40963;52.168;21.296;2022-10-16T16:59:52;18.00;99.30
55064;DHT22;40963;52.168;21.296;2022-10-16T17:02:18;17.90;99.40
55064;DHT22;40963;52.168;21.296;2022-10-16T17:04:44;18.00;99.40
55064;DHT22;40963;52.168;21.296;2022-10-16T17:07:09;17.90;99.50
55064;DHT22;40963;52.168;21.296;2022-10-16T17:09:35;17.90;99.60
55064;DHT22;40963;52.168;21.296;2022-10-16T17:12:01;17.90;99.70
55064;DHT22;40963;52.168;21.296;2022-10-16T17:14:28;17.80;99.70
55064;DHT22;40963;52.168;21.296;2022-10-16T17:16:53;17.90;99.80
55064;DHT22;40963;52.168;21.296;2022-10-16T17:19:19;17.80;99.90